Time;durP1;ratioP1;P1;durP2;ratioP2;P2;SDS_P1;SDS_P2;PMS_P1;PMS_P2;Temp;Humidity;BMP_temperature;BMP_pressure;BME280_temperature;BME280_humidity;BME280_pressure;Samples;Min_cycle;Max_cycle;Signal;HPM_P1;HPM_P2
2021/12/02 00:02:42;;;;;;;32.63;13.45;;;9.30;69.40;;;;;;6163327;28;20047;-70
2021/12/02 00:05:43;;;;;;;43.65;14.45;;;9.30;70.20;;;;;;6170275;28;20065;-70
2021/12/02 00:08:46;;;;;;;33.60;14.10;;;9.40;69.40;;;;;;6153298;28;20039;-71
2021/12/02 00:11:48;;;;;;;35.10;13.48;;;9.40;69.40;;;;;;6171657;28;20042;-70
2021/12/02 00:14:50;;;;;;;38.20;14.40;;;9.40;69.30;;;;;;6169663;28;20054;-70
2021/12/02 00:18:07;;;;;;;42.50;14.75;;;9.40;69.20;;;;;;6171601;28;20432;-71
2021/12/02 00:21:11;;;;;;;36.65;12.82;;;9.40;69.20;;;;;;6185853;28;20041;-71
2021/12/02 00:24:18;;;;;;;42.10;13.38;;;9.40;69.20;;;;;;6168786;28;20093;-70
2021/12/02 00:27:20;;;;;;;33.10;12.67;;;9.50;69.40;;;;;;6171927;28;20045;-71
2021/12/02 00:30:21;;;;;;;34.65;15.20;;;9.40;69.30;;;;;;6134904;28;20035;-70
2021/12/02 00:33:25;;;;;;;38.47;14.75;;;9.40;69.30;;;;;;6159168;28;20046;-71
2021/12/02 00:36:28;;;;;;;38.95;14.00;;;9.40;69.30;;;;;;6171338;28;20111;-71
2021/12/02 00:39:31;;;;;;;43.42;14.52;;;9.40;69.20;;;;;;6172068;28;20035;-71
2021/12/02 00:42:35;;;;;;;48.53;17.20;;;9.40;69.20;;;;;;6154869;28;20046;-71
2021/12/02 00:45:40;;;;;;;40.47;14.82;;;9.40;69.30;;;;;;6170624;28;20109;-70
2021/12/02 00:48:42;;;;;;;34.97;14.57;;;9.40;69.40;;;;;;6164769;28;20045;-70
2021/12/02 00:51:52;;;;;;;39.55;13.52;;;9.40;69.50;;;;;;6146410;28;20039;-70
2021/12/02 00:54:55;;;;;;;47.47;13.85;;;9.40;69.40;;;;;;6131313;28;20421;-70
2021/12/02 00:57:58;;;;;;;44.40;15.38;;;9.40;69.40;;;;;;6147290;28;20070;-70
2021/12/02 01:01:00;;;;;;;34.13;12.45;;;9.40;69.40;;;;;;6141455;28;20142;-70
2021/12/02 01:04:08;;;;;;;33.47;12.98;;;9.40;69.40;;;;;;6156306;28;20039;-70
2021/12/02 01:07:09;;;;;;;28.42;11.45;;;9.40;69.50;;;;;;6153445;28;20548;-70
2021/12/02 01:10:10;;;;;;;33.53;12.70;;;9.40;69.40;;;;;;6153616;28;20750;-71
2021/12/02 01:13:12;;;;;;;28.10;12.25;;;9.40;69.50;;;;;;6172501;28;20384;-71
2021/12/02 01:16:18;;;;;;;37.90;12.52;;;9.40;69.50;;;;;;6174491;28;20039;-70
2021/12/02 01:19:20;;;;;;;33.80;13.50;;;9.40;69.50;;;;;;6159020;28;20042;-72
2021/12/02 01:22:24;;;;;;;33.80;12.38;;;9.30;69.40;;;;;;6174564;28;20050;-70
2021/12/02 01:25:30;;;;;;;32.33;13.70;;;9.30;69.40;;;;;;6158888;28;20031;-70
2021/12/02 01:28:33;;;;;;;28.98;13.05;;;9.30;69.30;;;;;;6134479;28;20031;-70
2021/12/02 01:31:36;;;;;;;33.15;12.82;;;9.30;69.30;;;;;;6170588;28;20368;-70
2021/12/02 01:34:37;;;;;;;31.63;11.50;;;9.30;69.30;;;;;;6176391;28;20360;-69
2021/12/02 01:37:40;;;;;;;39.88;13.10;;;9.30;69.20;;;;;;6175595;28;20368;-70
2021/12/02 01:40:42;;;;;;;39.15;13.07;;;9.30;69.30;;;;;;6159486;28;20035;-70
2021/12/02 01:43:50;;;;;;;40.03;13.40;;;9.40;70.10;;;;;;6159466;28;20049;-71
2021/12/02 01:46:58;;;;;;;30.05;12.90;;;9.30;69.10;;;;;;6159388;28;20096;-70
2021/12/02 01:50:03;;;;;;;32.80;13.55;;;9.30;69.20;;;;;;6158435;28;20126;-70
2021/12/02 01:53:05;;;;;;;39.55;13.90;;;9.30;69.10;;;;;;6153422;28;20051;-70
2021/12/02 01:56:12;;;;;;;32.45;13.77;;;9.30;69.20;;;;;;6175519;28;20043;-70
2021/12/02 01:59:25;;;;;;;37.75;13.85;;;9.30;69.20;;;;;;6176439;28;20034;-70
2021/12/02 02:02:30;;;;;;;37.75;13.50;;;9.30;69.10;;;;;;6175943;28;20400;-70
2021/12/02 02:05:32;;;;;;;33.85;13.65;;;9.20;69.10;;;;;;6169392;28;20031;-70
2021/12/02 02:08:33;;;;;;;31.63;12.68;;;9.20;69.30;;;;;;6176729;28;20027;-70
2021/12/02 02:11:35;;;;;;;35.40;14.05;;;9.20;69.40;;;;;;6174905;28;20042;-70
2021/12/02 02:14:38;;;;;;;29.25;12.57;;;9.20;69.30;;;;;;6163185;28;20430;-70
2021/12/02 02:17:56;;;;;;;34.80;13.63;;;9.20;69.30;;;;;;6172024;28;20058;-70
2021/12/02 02:21:09;;;;;;;34.70;12.20;;;9.20;69.10;;;;;;6185489;28;20031;-70
2021/12/02 02:24:14;;;;;;;37.00;13.52;;;9.10;69.10;;;;;;6174349;28;20101;-70
2021/12/02 02:27:16;;;;;;;35.72;13.38;;;9.10;69.40;;;;;;6174597;28;20050;-71
2021/12/02 02:30:17;;;;;;;44.28;15.25;;;9.10;69.30;;;;;;6174977;28;20095;-70
2021/12/02 02:33:20;;;;;;;38.83;15.38;;;9.10;69.40;;;;;;6178032;28;20035;-70
2021/12/02 02:36:26;;;;;;;40.63;14.55;;;9.10;69.40;;;;;;6174688;28;20133;-70
2021/12/02 02:39:30;;;;;;;36.20;13.27;;;9.10;69.40;;;;;;6145640;28;20106;-70
2021/12/02 02:42:31;;;;;;;40.97;14.95;;;9.10;69.40;;;;;;6155736;28;20053;-70
2021/12/02 02:45:32;;;;;;;45.67;15.50;;;9.10;69.60;;;;;;6173686;28;20129;-70
2021/12/02 02:48:33;;;;;;;40.08;16.20;;;9.10;69.60;;;;;;6197445;28;20035;-70
2021/12/02 02:51:37;;;;;;;40.88;16.08;;;9.10;69.60;;;;;;6185500;28;20130;-71
2021/12/02 02:54:39;;;;;;;41.67;14.20;;;9.10;69.50;;;;;;6175854;28;20411;-71
2021/12/02 02:57:54;;;;;;;43.50;15.45;;;9.10;70.40;;;;;;6182203;28;20086;-71
2021/12/02 03:01:05;;;;;;;53.05;18.35;;;9.00;69.60;;;;;;6180724;28;20138;-70
2021/12/02 03:07:38;;;;;;;39.60;15.00;;;9.00;69.60;;;;;;6196842;28;20050;-70
2021/12/02 03:13:50;;;;;;;49.60;16.23;;;9.00;69.70;;;;;;6185702;28;20069;-70
2021/12/02 03:16:51;;;;;;;43.58;13.70;;;9.00;69.70;;;;;;6197116;28;20042;-70
2021/12/02 03:19:52;;;;;;;42.88;14.98;;;9.00;69.70;;;;;;6197502;28;20438;-70
2021/12/02 03:22:54;;;;;;;36.63;14.20;;;9.00;69.80;;;;;;6177223;28;20047;-71
2021/12/02 03:25:55;;;;;;;50.78;13.93;;;9.00;69.80;;;;;;6180489;28;20396;-71
2021/12/02 03:28:56;;;;;;;42.63;15.57;;;9.00;70.00;;;;;;6196984;28;20057;-70
2021/12/02 03:31:58;;;;;;;56.13;14.52;;;9.00;70.00;;;;;;6163900;28;20540;-70
2021/12/02 03:34:59;;;;;;;42.08;14.38;;;9.00;70.10;;;;;;6180330;28;20041;-70
2021/12/02 03:38:00;;;;;;;40.78;15.05;;;9.10;70.10;;;;;;6179097;28;20046;-69
2021/12/02 03:41:01;;;;;;;46.47;15.13;;;9.10;70.00;;;;;;6197299;28;20042;-71
2021/12/02 03:44:02;;;;;;;40.88;15.10;;;9.10;70.10;;;;;;6196372;28;20112;-71
2021/12/02 03:47:04;;;;;;;43.38;15.00;;;9.10;70.00;;;;;;6167226;28;20035;-71
2021/12/02 03:50:05;;;;;;;34.75;14.70;;;9.20;70.00;;;;;;6180049;28;20034;-70
2021/12/02 03:53:06;;;;;;;48.65;15.95;;;9.20;69.90;;;;;;6195610;28;20042;-71
2021/12/02 03:56:08;;;;;;;38.95;13.30;;;9.10;69.90;;;;;;6196656;28;20037;-70
2021/12/02 03:59:10;;;;;;;39.72;14.65;;;9.10;69.90;;;;;;6196258;28;20030;-71
2021/12/02 04:02:11;;;;;;;33.80;13.75;;;9.10;70.00;;;;;;6199231;28;20092;-72
2021/12/02 04:05:12;;;;;;;37.60;13.32;;;9.10;69.90;;;;;;6162866;28;20034;-71
2021/12/02 04:08:13;;;;;;;38.35;12.85;;;9.10;70.20;;;;;;6196345;28;20038;-72
2021/12/02 04:14:31;;;;;;;41.83;14.32;;;9.20;70.10;;;;;;6195083;28;20121;-70
2021/12/02 04:17:43;;;;;;;39.05;13.52;;;9.20;69.90;;;;;;6185966;28;20376;-70
2021/12/02 04:20:45;;;;;;;29.35;10.48;;;9.30;70.00;;;;;;6195186;28;20111;-70
2021/12/02 04:23:46;;;;;;;24.80;9.45;;;9.30;69.80;;;;;;6196070;28;20045;-70
2021/12/02 04:26:47;;;;;;;28.52;11.02;;;9.40;69.80;;;;;;6195131;28;20030;-71
2021/12/02 04:29:48;;;;;;;27.50;10.80;;;9.30;69.50;;;;;;6178666;28;20368;-71
2021/12/02 04:32:51;;;;;;;27.90;10.75;;;9.40;69.50;;;;;;6176169;28;20046;-71
2021/12/02 04:35:53;;;;;;;30.23;10.98;;;9.40;69.50;;;;;;6187958;28;20050;-71
2021/12/02 04:38:54;;;;;;;23.40;10.65;;;9.40;69.40;;;;;;6195405;28;20042;-71
2021/12/02 04:41:58;;;;;;;26.73;10.07;;;9.40;69.40;;;;;;6196066;28;20467;-70
2021/12/02 04:44:59;;;;;;;32.25;12.02;;;9.40;69.20;;;;;;6177442;28;20484;-70
2021/12/02 04:48:00;;;;;;;32.35;11.15;;;9.50;69.20;;;;;;6195452;28;20117;-70
2021/12/02 04:51:01;;;;;;;30.08;10.18;;;9.50;69.10;;;;;;6184027;28;20121;-70
2021/12/02 04:54:04;;;;;;;28.00;9.85;;;9.50;69.00;;;;;;6197619;28;20038;-70
2021/12/02 04:57:05;;;;;;;22.20;8.48;;;9.50;69.00;;;;;;6183851;28;20034;-70
2021/12/02 05:00:07;;;;;;;22.83;9.50;;;9.40;68.90;;;;;;6183735;28;20113;-70
2021/12/02 05:03:08;;;;;;;20.70;8.57;;;9.40;68.90;;;;;;6184713;28;20038;-70
2021/12/02 05:06:09;;;;;;;18.33;7.70;;;9.40;68.90;;;;;;6182980;28;20043;-70
2021/12/02 05:09:10;;;;;;;15.02;6.45;;;9.40;68.90;;;;;;6183192;28;20054;-70
2021/12/02 05:12:12;;;;;;;10.30;4.72;;;9.40;68.90;;;;;;6164928;28;20042;-70
2021/12/02 05:15:13;;;;;;;16.63;5.13;;;9.40;68.60;;;;;;6200306;28;20038;-71
2021/12/02 05:18:14;;;;;;;18.05;4.05;;;9.40;68.40;;;;;;6183048;28;20038;-70
2021/12/02 05:21:15;;;;;;;12.00;5.15;;;9.30;68.40;;;;;;6197211;28;20045;-70
2021/12/02 05:24:16;;;;;;;11.15;4.57;;;9.30;68.20;;;;;;6199974;28;20058;-70
2021/12/02 05:27:17;;;;;;;10.27;5.03;;;9.30;68.00;;;;;;6183149;28;20030;-70
2021/12/02 05:30:18;;;;;;;17.70;5.40;;;9.20;67.90;;;;;;6198740;28;20034;-70
2021/12/02 05:33:20;;;;;;;17.27;6.43;;;9.20;68.00;;;;;;6165964;28;20054;-70
2021/12/02 05:36:21;;;;;;;17.83;6.55;;;9.20;68.10;;;;;;6197053;28;20045;-70
2021/12/02 05:39:22;;;;;;;14.85;6.50;;;9.20;68.20;;;;;;6199883;28;20062;-70
2021/12/02 05:42:23;;;;;;;22.42;7.28;;;9.20;68.30;;;;;;6176652;28;20468;-70
2021/12/02 05:45:24;;;;;;;14.60;6.88;;;9.20;68.20;;;;;;6198627;28;20093;-72
2021/12/02 05:48:26;;;;;;;21.50;7.05;;;9.10;68.30;;;;;;6169963;28;20031;-71
2021/12/02 05:51:27;;;;;;;20.30;7.15;;;9.20;68.20;;;;;;6173241;28;20122;-69
2021/12/02 05:54:28;;;;;;;18.92;7.03;;;9.20;68.20;;;;;;6158279;28;20059;-70
2021/12/02 05:57:31;;;;;;;24.08;7.78;;;9.20;68.10;;;;;;6158529;28;20110;-70
2021/12/02 06:00:32;;;;;;;26.02;9.77;;;9.30;68.30;;;;;;6156889;28;20054;-71
2021/12/02 06:03:36;;;;;;;20.55;8.55;;;9.30;68.30;;;;;;6158751;28;20035;-71
2021/12/02 06:06:38;;;;;;;19.80;8.50;;;9.30;68.20;;;;;;6175101;28;20368;-71
2021/12/02 06:09:39;;;;;;;23.42;8.18;;;9.30;68.20;;;;;;6165248;28;20038;-71
2021/12/02 06:12:40;;;;;;;27.40;10.40;;;9.40;68.10;;;;;;6167878;28;20475;-70
2021/12/02 06:15:42;;;;;;;29.83;9.93;;;9.40;68.10;;;;;;6157632;28;20200;-71
2021/12/02 06:18:44;;;;;;;27.73;11.32;;;9.40;68.00;;;;;;6157929;28;20036;-70
2021/12/02 06:21:45;;;;;;;28.83;10.93;;;9.40;68.10;;;;;;6157641;28;20038;-71
2021/12/02 06:24:53;;;;;;;27.52;11.48;;;9.40;68.00;;;;;;6157067;28;20064;-70
2021/12/02 06:27:56;;;;;;;32.05;12.63;;;9.40;68.10;;;;;;6158318;28;20436;-70
2021/12/02 06:30:57;;;;;;;37.72;12.10;;;9.40;68.10;;;;;;6174509;28;20035;-70
2021/12/02 06:33:58;;;;;;;38.20;13.60;;;9.50;68.20;;;;;;6176147;28;20051;-71
2021/12/02 06:36:59;;;;;;;29.83;11.63;;;9.50;68.30;;;;;;6157613;28;20046;-70
2021/12/02 06:40:00;;;;;;;33.72;12.45;;;9.50;68.10;;;;;;6158021;28;20451;-70
2021/12/02 06:43:02;;;;;;;38.35;12.57;;;9.70;68.20;;;;;;6157932;28;20062;-72
2021/12/02 06:46:03;;;;;;;24.83;10.80;;;9.50;68.20;;;;;;6173648;28;20111;-73
2021/12/02 06:49:05;;;;;;;28.98;10.25;;;9.50;68.10;;;;;;6175315;28;20035;-71
2021/12/02 06:52:14;;;;;;;28.13;10.15;;;9.50;68.30;;;;;;6157741;28;20047;-71
2021/12/02 06:55:16;;;;;;;23.85;9.85;;;9.50;68.50;;;;;;6174793;28;20121;-71
2021/12/02 06:58:17;;;;;;;28.30;9.70;;;9.40;68.50;;;;;;6174822;28;20050;-72
2021/12/02 07:01:18;;;;;;;21.45;8.57;;;9.40;68.60;;;;;;6171251;28;20031;-71
2021/12/02 07:04:19;;;;;;;16.05;6.18;;;9.30;68.80;;;;;;6161148;28;20403;-71
2021/12/02 07:07:20;;;;;;;16.08;7.78;;;9.20;69.00;;;;;;6140588;28;20031;-72
2021/12/02 07:10:25;;;;;;;10.73;5.60;;;9.20;69.20;;;;;;6173906;28;20049;-71
2021/12/02 07:13:26;;;;;;;17.67;6.43;;;9.20;70.10;;;;;;6157544;28;20109;-71
2021/12/02 07:16:27;;;;;;;15.27;6.45;;;9.20;69.30;;;;;;6156978;28;20457;-71
2021/12/02 07:19:28;;;;;;;15.07;7.65;;;9.20;69.50;;;;;;6140967;28;20383;-71
2021/12/02 07:22:30;;;;;;;18.20;7.10;;;9.20;69.50;;;;;;6156971;28;20062;-71
2021/12/02 07:25:32;;;;;;;18.63;7.57;;;9.20;69.30;;;;;;6150898;28;20364;-70
2021/12/02 07:28:35;;;;;;;20.02;8.55;;;9.20;69.30;;;;;;6148800;28;20077;-71
2021/12/02 07:31:39;;;;;;;20.50;8.75;;;9.30;69.40;;;;;;6157119;28;20039;-71
2021/12/02 07:34:45;;;;;;;17.45;7.32;;;9.30;69.50;;;;;;6179866;28;20027;-71
2021/12/02 07:37:48;;;;;;;18.63;7.55;;;9.30;69.50;;;;;;6157792;28;20468;-71
2021/12/02 07:40:49;;;;;;;13.40;6.38;;;9.30;69.40;;;;;;6174625;28;20045;-70
2021/12/02 07:43:50;;;;;;;15.77;6.72;;;9.40;69.30;;;;;;6156940;28;20073;-71
2021/12/02 07:46:52;;;;;;;16.08;6.80;;;9.40;69.20;;;;;;6157671;28;20031;-70
2021/12/02 07:49:53;;;;;;;18.33;7.25;;;9.40;69.10;;;;;;6173547;28;20035;-71
2021/12/02 07:52:58;;;;;;;20.00;8.98;;;9.50;69.00;;;;;;6168054;28;20042;-71
2021/12/02 07:56:03;;;;;;;22.73;8.73;;;9.50;69.00;;;;;;6173447;28;20030;-70
2021/12/02 07:59:05;;;;;;;22.35;8.15;;;9.60;69.00;;;;;;6174423;28;20039;-71
2021/12/02 08:02:14;;;;;;;27.40;9.05;;;9.60;68.80;;;;;;6174552;28;20042;-71
2021/12/02 08:05:16;;;;;;;21.08;7.75;;;9.70;68.70;;;;;;6173925;28;20054;-71
2021/12/02 08:08:17;;;;;;;16.88;8.20;;;9.70;68.60;;;;;;6150312;28;20380;-70
2021/12/02 08:11:18;;;;;;;18.10;8.35;;;9.70;68.50;;;;;;6172036;28;20115;-70
2021/12/02 08:14:20;;;;;;;20.42;8.63;;;9.80;68.40;;;;;;6155626;28;20531;-73
2021/12/02 08:17:21;;;;;;;22.60;9.32;;;9.80;68.30;;;;;;6156616;28;20037;-71
2021/12/02 08:20:24;;;;;;;24.00;9.65;;;9.80;68.00;;;;;;6199474;28;20038;-71
2021/12/02 08:23:26;;;;;;;27.95;11.10;;;9.90;67.90;;;;;;6173016;28;20075;-71
2021/12/02 08:26:29;;;;;;;20.13;9.73;;;9.90;67.80;;;;;;6158853;28;20027;-71
2021/12/02 08:29:32;;;;;;;25.65;10.85;;;9.90;67.80;;;;;;6172092;28;20479;-71
2021/12/02 08:32:36;;;;;;;28.05;11.27;;;9.90;67.80;;;;;;6176315;28;20114;-70
2021/12/02 08:35:37;;;;;;;24.52;10.60;;;9.80;67.90;;;;;;6170572;28;20031;-71
2021/12/02 08:38:38;;;;;;;25.20;12.00;;;9.90;68.00;;;;;;6173725;28;20035;-71
2021/12/02 08:41:44;;;;;;;24.52;10.20;;;10.00;67.90;;;;;;6137459;28;20035;-72
2021/12/02 08:44:49;;;;;;;24.38;8.98;;;10.00;67.80;;;;;;6155837;28;20031;-72
2021/12/02 08:47:50;;;;;;;21.42;9.25;;;10.10;67.80;;;;;;6172304;28;20066;-72
2021/12/02 08:50:52;;;;;;;17.75;8.48;;;10.10;67.70;;;;;;6160486;28;20054;-69
2021/12/02 08:53:53;;;;;;;15.77;6.43;;;10.20;67.70;;;;;;6177824;28;20094;-70
2021/12/02 08:56:55;;;;;;;20.60;7.78;;;10.30;67.50;;;;;;6160839;28;20038;-71
2021/12/02 08:59:56;;;;;;;13.20;5.85;;;10.40;67.20;;;;;;6212307;28;20042;-71
2021/12/02 09:02:57;;;;;;;21.95;7.63;;;10.40;66.90;;;;;;6203257;28;20057;-71
2021/12/02 09:05:58;;;;;;;14.15;7.47;;;10.50;66.70;;;;;;6197292;28;20085;-71
2021/12/02 09:08:59;;;;;;;19.10;8.15;;;10.50;66.60;;;;;;6197405;28;20061;-70
2021/12/02 09:12:00;;;;;;;17.02;8.18;;;10.60;66.50;;;;;;6180052;28;20141;-71
2021/12/02 09:15:04;;;;;;;20.08;8.75;;;10.60;66.20;;;;;;6179836;28;20121;-71
2021/12/02 09:18:05;;;;;;;16.95;8.35;;;10.60;66.10;;;;;;6197334;28;20030;-70
2021/12/02 09:21:07;;;;;;;27.23;10.15;;;10.70;66.00;;;;;;6155181;28;20048;-71
2021/12/02 09:24:08;;;;;;;21.38;9.35;;;10.70;65.90;;;;;;6186887;28;20435;-71
2021/12/02 09:27:10;;;;;;;25.25;8.90;;;10.70;65.80;;;;;;6196334;28;20038;-71
2021/12/02 09:30:12;;;;;;;18.95;8.82;;;10.80;65.70;;;;;;6195666;28;20038;-70
2021/12/02 09:33:13;;;;;;;22.67;8.15;;;10.90;65.60;;;;;;6192797;28;20038;-70
2021/12/02 09:36:16;;;;;;;15.23;7.60;;;11.00;65.40;;;;;;6201585;28;20030;-71
2021/12/02 09:39:17;;;;;;;25.35;8.55;;;11.00;65.10;;;;;;6201507;28;20122;-71
2021/12/02 09:42:19;;;;;;;18.30;7.88;;;11.00;64.90;;;;;;6200136;28;20034;-70
2021/12/02 09:45:20;;;;;;;23.90;9.48;;;11.10;65.00;;;;;;6178262;28;20462;-70
2021/12/02 09:48:22;;;;;;;22.83;9.70;;;11.20;64.90;;;;;;6200951;28;20038;-71
2021/12/02 09:51:31;;;;;;;21.35;8.35;;;11.20;64.60;;;;;;6191311;28;20108;-71
2021/12/02 09:54:38;;;;;;;20.70;8.70;;;11.20;64.30;;;;;;6170092;28;20479;-72
2021/12/02 09:57:44;;;;;;;29.77;12.48;;;11.20;64.30;;;;;;6159175;28;20405;-71
2021/12/02 10:04:11;;;;;;;19.15;9.32;;;11.20;64.60;;;;;;6081891;29;20040;-70
2021/12/02 10:07:22;;;;;;;35.33;12.02;;;11.10;64.50;;;;;;6079045;29;20374;-71
2021/12/02 10:10:33;;;;;;;30.13;10.40;;;11.10;64.70;;;;;;6078817;29;20041;-71
2021/12/02 10:13:49;;;;;;;18.92;8.52;;;11.00;64.90;;;;;;6078715;29;20446;-71
2021/12/02 10:17:04;;;;;;;18.85;8.65;;;11.00;64.80;;;;;;6094338;29;20046;-71
2021/12/02 10:20:19;;;;;;;26.92;10.45;;;11.00;64.90;;;;;;6074203;29;20079;-71
2021/12/02 10:23:34;;;;;;;25.25;9.32;;;11.10;65.00;;;;;;6045985;29;20474;-71
2021/12/02 10:26:38;;;;;;;23.08;9.10;;;11.30;64.90;;;;;;6087062;29;20518;-71
2021/12/02 10:29:39;;;;;;;15.68;7.78;;;11.50;64.60;;;;;;6094455;29;20335;-70
2021/12/02 10:32:50;;;;;;;18.95;8.35;;;11.80;64.00;;;;;;6096964;29;20391;-71
2021/12/02 10:35:52;;;;;;;29.92;9.77;;;12.20;63.50;;;;;;6105892;29;20119;-72
2021/12/02 10:38:56;;;;;;;10.43;2.60;;;12.40;62.60;;;;;;6098251;29;20036;-71
2021/12/02 10:42:05;;;;;;;3.35;1.60;;;12.50;61.40;;;;;;6174411;28;20114;-70
2021/12/02 10:45:07;;;;;;;4.40;2.00;;;12.50;60.40;;;;;;6154324;28;20042;-70
2021/12/02 10:48:08;;;;;;;7.00;2.00;;;12.50;59.80;;;;;;6137537;28;20038;-71
2021/12/02 10:51:36;;;;;;;3.80;1.60;;;12.40;59.30;;;;;;6160758;28;20068;-72
2021/12/02 10:54:43;;;;;;;4.32;2.15;;;12.20;59.30;;;;;;6161172;28;20158;-71
2021/12/02 10:57:51;;;;;;;4.30;1.83;;;12.10;59.40;;;;;;6180117;28;20456;-73
2021/12/02 11:00:52;;;;;;;3.72;2.00;;;12.00;59.50;;;;;;6192920;28;20034;-70
2021/12/02 11:04:06;;;;;;;2.72;1.98;;;11.90;59.60;;;;;;6198182;28;20076;-71
2021/12/02 11:07:12;;;;;;;4.95;1.92;;;11.60;59.70;;;;;;6186045;28;20027;-71
2021/12/02 11:10:15;;;;;;;9.75;1.85;;;11.40;60.00;;;;;;6179212;28;20452;-71
2021/12/02 11:13:24;;;;;;;4.15;1.85;;;11.30;60.70;;;;;;6179115;28;20062;-71
2021/12/02 11:16:35;;;;;;;6.55;1.92;;;11.10;61.30;;;;;;6211357;28;20034;-71
2021/12/02 11:19:37;;;;;;;7.57;1.40;;;11.00;61.70;;;;;;6182908;28;20034;-71
2021/12/02 11:22:38;;;;;;;5.15;2.45;;;11.00;62.00;;;;;;6178061;28;20466;-70
2021/12/02 11:25:58;;;;;;;4.10;2.03;;;11.00;62.00;;;;;;6179025;28;20066;-71
2021/12/02 11:28:59;;;;;;;7.80;2.25;;;11.10;61.90;;;;;;6195094;28;20049;-71
2021/12/02 11:32:01;;;;;;;6.97;2.10;;;11.00;61.50;;;;;;6198931;28;20125;-71
2021/12/02 11:35:13;;;;;;;2.60;1.58;;;11.00;61.70;;;;;;6179053;28;20143;-72
2021/12/02 11:38:19;;;;;;;4.88;2.22;;;11.00;61.70;;;;;;6195927;28;20073;-73
2021/12/02 11:41:20;;;;;;;5.93;2.90;;;11.00;61.70;;;;;;6177445;28;20038;-71
2021/12/02 11:44:21;;;;;;;12.93;5.80;;;11.10;61.60;;;;;;6194877;28;20101;-70
2021/12/02 11:47:22;;;;;;;19.38;7.30;;;11.10;61.50;;;;;;6193077;28;20049;-71
2021/12/02 11:50:25;;;;;;;17.77;6.68;;;11.20;61.80;;;;;;6178359;28;20057;-71
2021/12/02 11:53:27;;;;;;;18.95;7.53;;;11.20;62.00;;;;;;6177874;28;20069;-72
2021/12/02 11:56:28;;;;;;;22.63;7.85;;;11.30;62.20;;;;;;6167003;28;20031;-72
2021/12/02 11:59:29;;;;;;;20.88;7.85;;;11.30;62.20;;;;;;6176427;28;20050;-71
2021/12/02 12:02:30;;;;;;;26.20;7.53;;;11.30;62.20;;;;;;6178292;28;20371;-71
2021/12/02 12:05:33;;;;;;;19.30;7.20;;;11.30;62.40;;;;;;6160881;28;20113;-72
2021/12/02 12:08:38;;;;;;;16.95;7.15;;;11.30;62.50;;;;;;6178092;28;20045;-71
2021/12/02 12:11:48;;;;;;;15.27;6.63;;;11.40;62.50;;;;;;6176528;28;20034;-71
2021/12/02 12:14:51;;;;;;;22.85;9.80;;;11.40;62.50;;;;;;6176846;28;20428;-72
2021/12/02 12:17:52;;;;;;;22.27;7.68;;;11.50;62.50;;;;;;6179221;28;20081;-72
2021/12/02 12:21:01;;;;;;;15.80;6.93;;;11.50;62.40;;;;;;6196179;28;20125;-71
2021/12/02 12:24:03;;;;;;;26.02;10.52;;;11.60;62.40;;;;;;6178736;28;20468;-71
2021/12/02 12:27:16;;;;;;;23.80;8.25;;;11.70;62.40;;;;;;6195728;28;20038;-71
2021/12/02 12:30:23;;;;;;;21.15;7.10;;;11.70;62.40;;;;;;6199787;28;20038;-71
2021/12/02 12:33:36;;;;;;;19.63;7.03;;;11.70;62.40;;;;;;6182221;28;20062;-71
2021/12/02 12:36:44;;;;;;;18.30;5.78;;;11.70;62.40;;;;;;6178298;28;20046;-71
2021/12/02 12:40:02;;;;;;;9.43;3.97;;;11.60;62.20;;;;;;6195485;28;20037;-71
2021/12/02 12:43:07;;;;;;;6.53;2.67;;;11.40;62.00;;;;;;6193627;28;20040;-71
2021/12/02 12:50:49;;;;;;;3.53;1.65;;;11.10;61.80;;;;;;6194740;28;20442;-71
2021/12/02 12:53:55;;;;;;;3.50;1.73;;;10.90;61.90;;;;;;6144149;28;20073;-70
2021/12/02 12:57:08;;;;;;;3.25;1.10;;;10.70;62.20;;;;;;6156869;28;20052;-71
2021/12/02 13:00:09;;;;;;;2.17;0.85;;;10.40;62.20;;;;;;6148070;28;20035;-70
2021/12/02 13:03:19;;;;;;;2.63;1.00;;;10.30;63.40;;;;;;6169769;28;20058;-70
2021/12/02 13:06:25;;;;;;;2.40;0.70;;;10.10;63.00;;;;;;6155655;28;20031;-70
2021/12/02 13:10:03;;;;;;;0.95;0.50;;;9.90;63.20;;;;;;6174455;28;20451;-70
2021/12/02 13:13:06;;;;;;;1.60;0.60;;;9.70;63.60;;;;;;6157630;28;20122;-70
2021/12/02 13:16:35;;;;;;;2.45;0.63;;;9.70;64.10;;;;;;6159479;28;20400;-70
2021/12/02 13:19:57;;;;;;;4.07;0.80;;;9.70;64.30;;;;;;6024899;29;20859;-71
2021/12/02 13:23:13;;;;;;;4.78;1.25;;;9.80;64.40;;;;;;6045700;29;20037;-72
2021/12/02 13:26:16;;;;;;;1.77;0.93;;;9.80;64.50;;;;;;6052622;29;20511;-71
2021/12/02 13:29:22;;;;;;;4.05;1.23;;;9.80;64.70;;;;;;6054797;29;20045;-71
2021/12/02 13:32:23;;;;;;;5.45;2.03;;;9.90;64.80;;;;;;6054874;29;20127;-72
2021/12/02 13:35:26;;;;;;;7.43;3.15;;;10.10;64.90;;;;;;6037262;29;20049;-71
2021/12/02 13:38:27;;;;;;;11.57;4.40;;;10.20;64.60;;;;;;6032791;29;20042;-71
2021/12/02 13:41:34;;;;;;;8.32;3.20;;;10.40;64.50;;;;;;6069637;29;20057;-71
2021/12/02 13:44:44;;;;;;;7.47;3.30;;;10.50;64.30;;;;;;6031268;29;21751;-70
2021/12/02 13:47:45;;;;;;;5.78;2.88;;;10.50;64.00;;;;;;6038860;29;20266;-72
2021/12/02 13:50:49;;;;;;;9.60;3.08;;;10.50;63.60;;;;;;6055396;29;20048;-71
2021/12/02 13:53:51;;;;;;;3.25;1.70;;;10.60;63.60;;;;;;6077925;29;20049;-71
2021/12/02 13:56:54;;;;;;;4.50;2.42;;;10.60;63.40;;;;;;6119253;28;20051;-71
2021/12/02 13:59:55;;;;;;;5.70;2.65;;;10.60;62.50;;;;;;6158185;28;20043;-71
2021/12/02 14:03:00;;;;;;;9.30;3.28;;;10.60;62.60;;;;;;6160228;28;20070;-70
2021/12/02 14:06:02;;;;;;;9.50;2.85;;;10.60;62.90;;;;;;6157873;28;20038;-70
2021/12/02 14:09:13;;;;;;;5.10;2.20;;;10.60;63.00;;;;;;6151616;28;20046;-72
2021/12/02 14:12:15;;;;;;;3.80;1.55;;;10.60;62.60;;;;;;6155955;28;20053;-71
2021/12/02 14:15:28;;;;;;;10.80;1.20;;;10.50;62.10;;;;;;6174568;28;20439;-72
2021/12/02 14:18:30;;;;;;;0.00;0.00;;;10.40;62.00;;;;;;6175942;28;20102;-70
2021/12/02 14:21:31;;;;;;;0.17;0.17;;;10.20;60.40;;;;;;6174474;28;20452;-71
2021/12/02 14:24:32;;;;;;;0.80;0.10;;;9.40;59.60;;;;;;6138658;28;20054;-71
2021/12/02 14:27:34;;;;;;;0.22;0.10;;;8.60;61.50;;;;;;6142779;28;20038;-72
2021/12/02 14:30:49;;;;;;;0.17;0.17;;;8.10;63.70;;;;;;6174815;28;20110;-71
2021/12/02 14:33:53;;;;;;;0.15;0.13;;;7.70;65.40;;;;;;6141635;28;20046;-70
2021/12/02 14:36:55;;;;;;;0.20;0.20;;;7.50;66.70;;;;;;6166512;28;20038;-72
2021/12/02 14:39:56;;;;;;;0.00;0.00;;;7.20;67.50;;;;;;6138814;28;20129;-72
2021/12/02 14:43:19;;;;;;;0.00;0.00;;;7.00;68.40;;;;;;6178208;28;20122;-71
2021/12/02 14:46:31;;;;;;;0.47;0.15;;;6.80;69.20;;;;;;6147662;28;20045;-71
2021/12/02 14:49:36;;;;;;;0.10;0.10;;;6.60;69.80;;;;;;6143266;28;20113;-71
2021/12/02 14:52:37;;;;;;;0.08;0.08;;;6.40;70.40;;;;;;6149488;28;20042;-72
2021/12/02 14:55:38;;;;;;;0.10;0.10;;;6.20;70.90;;;;;;6136394;28;20054;-71
2021/12/02 14:58:39;;;;;;;0.00;0.00;;;6.10;71.40;;;;;;6173465;28;20038;-71
2021/12/02 15:02:07;;;;;;;0.20;0.20;;;5.90;71.80;;;;;;6168868;28;20433;-71
2021/12/02 15:05:24;;;;;;;1.23;0.22;;;5.80;72.50;;;;;;6169888;28;20050;-71
2021/12/02 15:08:32;;;;;;;0.25;0.15;;;5.80;72.90;;;;;;6169637;28;20046;-71
2021/12/02 15:11:33;;;;;;;0.22;0.22;;;5.80;73.10;;;;;;6172057;28;20041;-71
2021/12/02 15:14:42;;;;;;;1.40;0.20;;;5.80;73.10;;;;;;6171529;28;20355;-72
2021/12/02 15:17:45;;;;;;;0.20;0.20;;;5.80;73.10;;;;;;6155208;28;20118;-71
2021/12/02 15:20:48;;;;;;;2.15;0.50;;;5.90;73.20;;;;;;6185056;28;20415;-71
2021/12/02 15:23:51;;;;;;;0.77;0.28;;;5.90;73.00;;;;;;6154699;28;20126;-72
2021/12/02 15:27:09;;;;;;;0.00;0.00;;;5.90;73.00;;;;;;6168271;28;20023;-71
2021/12/02 15:30:10;;;;;;;0.10;0.08;;;6.00;72.50;;;;;;6171039;28;20049;-71
2021/12/02 15:33:14;;;;;;;0.25;0.10;;;6.10;72.10;;;;;;6172488;28;20113;-70
2021/12/02 15:36:18;;;;;;;6.38;0.22;;;6.20;71.60;;;;;;6172567;28;20030;-70
2021/12/02 15:39:19;;;;;;;0.65;0.25;;;6.30;70.40;;;;;;6172447;28;20353;-70
2021/12/02 15:42:21;;;;;;;1.45;0.70;;;6.30;69.90;;;;;;6187116;28;20038;-71
2021/12/02 15:45:22;;;;;;;0.15;0.15;;;6.40;69.40;;;;;;6170389;28;20031;-72
2021/12/02 15:48:23;;;;;;;0.38;0.25;;;6.50;68.90;;;;;;6171048;28;20556;-70
2021/12/02 15:51:25;;;;;;;0.35;0.22;;;6.50;68.30;;;;;;6176130;28;20038;-71
2021/12/02 15:54:28;;;;;;;0.00;0.00;;;6.60;67.90;;;;;;6177956;28;20388;-71
2021/12/02 15:57:29;;;;;;;0.75;0.20;;;6.60;67.80;;;;;;6179331;28;20061;-71
2021/12/02 16:00:30;;;;;;;0.32;0.30;;;6.60;67.40;;;;;;6179643;28;20035;-71
2021/12/02 16:06:37;;;;;;;0.30;0.20;;;6.50;67.70;;;;;;6196439;28;20076;-70
2021/12/02 16:12:40;;;;;;;0.28;0.20;;;6.50;67.70;;;;;;6197063;28;20527;-70
2021/12/02 16:15:41;;;;;;;0.43;0.30;;;6.50;67.40;;;;;;6196661;28;20353;-71
2021/12/02 16:18:43;;;;;;;0.20;0.20;;;6.50;67.40;;;;;;6178615;28;20046;-70